sensor_id;sensor_type;location;lat;lon;timestamp;temperature;humidity
20998;DHT22;10657;51.276;6.390;2023-09-30T00:02:26;14.00;99.90
20998;DHT22;10657;51.276;6.390;2023-09-30T00:04:54;14.10;99.90
20998;DHT22;10657;51.276;6.390;2023-09-30T00:07:20;14.00;99.90
20998;DHT22;10657;51.276;6.390;2023-09-30T00:09:48;14.10;99.90
20998;DHT22;10657;51.276;6.390;2023-09-30T00:12:14;14.10;99.90
20998;DHT22;10657;51.276;6.390;2023-09-30T00:14:41;14.00;99.90
20998;DHT22;10657;51.276;6.390;2023-09-30T00:17:08;14.00;99.90
20998;DHT22;10657;51.276;6.390;2023-09-30T00:19:35;14.10;99.90
20998;DHT22;10657;51.276;6.390;2023-09-30T00:22:01;14.10;99.90
20998;DHT22;10657;51.276;6.390;2023-09-30T00:24:28;14.10;99.90
20998;DHT22;10657;51.276;6.390;2023-09-30T00:26:55;14.10;99.90
20998;DHT22;10657;51.276;6.390;2023-09-30T00:29:23;14.10;99.90
20998;DHT22;10657;51.276;6.390;2023-09-30T00:31:49;14.20;99.90
20998;DHT22;10657;51.276;6.390;2023-09-30T00:34:16;14.10;99.90
20998;DHT22;10657;51.276;6.390;2023-09-30T00:36:43;14.00;99.90
20998;DHT22;10657;51.276;6.390;2023-09-30T00:39:09;14.00;99.90
20998;DHT22;10657;51.276;6.390;2023-09-30T00:41:39;14.00;99.90
20998;DHT22;10657;51.276;6.390;2023-09-30T00:44:06;13.90;99.90
20998;DHT22;10657;51.276;6.390;2023-09-30T00:46:37;14.00;99.90
20998;DHT22;10657;51.276;6.390;2023-09-30T00:49:06;14.00;99.90
20998;DHT22;10657;51.276;6.390;2023-09-30T00:51:33;14.10;99.90
20998;DHT22;10657;51.276;6.390;2023-09-30T00:54:00;14.10;99.90
20998;DHT22;10657;51.276;6.390;2023-09-30T00:56:29;14.10;99.90
20998;DHT22;10657;51.276;6.390;2023-09-30T00:58:56;14.10;99.90
20998;DHT22;10657;51.276;6.390;2023-09-30T01:01:23;14.10;99.90
20998;DHT22;10657;51.276;6.390;2023-09-30T01:03:50;14.10;99.90
20998;DHT22;10657;51.276;6.390;2023-09-30T01:06:17;14.00;99.90
20998;DHT22;10657;51.276;6.390;2023-09-30T01:08:45;14.10;99.90
20998;DHT22;10657;51.276;6.390;2023-09-30T01:11:12;14.10;99.90
20998;DHT22;10657;51.276;6.390;2023-09-30T01:13:39;14.10;99.90
20998;DHT22;10657;51.276;6.390;2023-09-30T01:16:07;14.00;99.90
20998;DHT22;10657;51.276;6.390;2023-09-30T01:18:38;14.10;99.90
20998;DHT22;10657;51.276;6.390;2023-09-30T01:21:07;14.00;99.90
20998;DHT22;10657;51.276;6.390;2023-09-30T01:23:35;14.10;99.90
20998;DHT22;10657;51.276;6.390;2023-09-30T01:26:12;13.90;99.90
20998;DHT22;10657;51.276;6.390;2023-09-30T01:28:40;13.90;99.90
20998;DHT22;10657;51.276;6.390;2023-09-30T01:31:06;14.00;99.90
20998;DHT22;10657;51.276;6.390;2023-09-30T01:33:33;14.10;99.90
20998;DHT22;10657;51.276;6.390;2023-09-30T01:36:00;14.10;99.90
20998;DHT22;10657;51.276;6.390;2023-09-30T01:38:27;14.10;99.90
20998;DHT22;10657;51.276;6.390;2023-09-30T01:40:54;14.10;99.90
20998;DHT22;10657;51.276;6.390;2023-09-30T01:43:22;14.00;99.90
20998;DHT22;10657;51.276;6.390;2023-09-30T01:45:49;14.00;99.90
20998;DHT22;10657;51.276;6.390;2023-09-30T01:48:16;14.00;99.90
20998;DHT22;10657;51.276;6.390;2023-09-30T01:50:43;13.90;99.90
20998;DHT22;10657;51.276;6.390;2023-09-30T01:53:10;13.90;99.90
20998;DHT22;10657;51.276;6.390;2023-09-30T01:55:37;14.00;99.90
20998;DHT22;10657;51.276;6.390;2023-09-30T01:58:03;14.00;99.90
20998;DHT22;10657;51.276;6.390;2023-09-30T02:00:30;14.00;99.90
20998;DHT22;10657;51.276;6.390;2023-09-30T02:02:57;13.80;99.90
20998;DHT22;10657;51.276;6.390;2023-09-30T02:05:24;13.80;99.90
20998;DHT22;10657;51.276;6.390;2023-09-30T02:07:51;13.90;99.90
20998;DHT22;10657;51.276;6.390;2023-09-30T02:10:18;14.00;99.90
20998;DHT22;10657;51.276;6.390;2023-09-30T02:12:45;14.00;99.90
20998;DHT22;10657;51.276;6.390;2023-09-30T02:15:13;14.00;99.90
20998;DHT22;10657;51.276;6.390;2023-09-30T02:17:40;13.90;99.90
20998;DHT22;10657;51.276;6.390;2023-09-30T02:20:08;13.90;99.90
20998;DHT22;10657;51.276;6.390;2023-09-30T02:22:39;13.90;99.90
20998;DHT22;10657;51.276;6.390;2023-09-30T02:25:06;13.90;99.90
20998;DHT22;10657;51.276;6.390;2023-09-30T02:27:34;13.80;99.90
20998;DHT22;10657;51.276;6.390;2023-09-30T02:30:01;13.80;99.90
20998;DHT22;10657;51.276;6.390;2023-09-30T02:32:28;13.80;99.90
20998;DHT22;10657;51.276;6.390;2023-09-30T02:34:55;13.80;99.90
20998;DHT22;10657;51.276;6.390;2023-09-30T02:37:22;13.80;99.90
20998;DHT22;10657;51.276;6.390;2023-09-30T02:39:48;13.80;99.90
20998;DHT22;10657;51.276;6.390;2023-09-30T02:42:15;13.80;99.90
20998;DHT22;10657;51.276;6.390;2023-09-30T02:44:42;13.80;99.90
20998;DHT22;10657;51.276;6.390;2023-09-30T02:47:08;13.90;99.90
20998;DHT22;10657;51.276;6.390;2023-09-30T02:49:36;13.80;99.90
20998;DHT22;10657;51.276;6.390;2023-09-30T02:52:03;13.80;99.90
20998;DHT22;10657;51.276;6.390;2023-09-30T02:54:31;13.70;99.90
20998;DHT22;10657;51.276;6.390;2023-09-30T02:56:57;13.80;99.90
20998;DHT22;10657;51.276;6.390;2023-09-30T02:59:24;13.70;99.90
20998;DHT22;10657;51.276;6.390;2023-09-30T03:01:51;13.70;99.90
20998;DHT22;10657;51.276;6.390;2023-09-30T03:04:18;13.80;99.90
20998;DHT22;10657;51.276;6.390;2023-09-30T03:06:46;13.70;99.90
20998;DHT22;10657;51.276;6.390;2023-09-30T03:09:14;13.60;99.90
20998;DHT22;10657;51.276;6.390;2023-09-30T03:11:41;13.60;99.90
20998;DHT22;10657;51.276;6.390;2023-09-30T03:14:12;13.60;99.90
20998;DHT22;10657;51.276;6.390;2023-09-30T03:16:39;13.70;99.90
20998;DHT22;10657;51.276;6.390;2023-09-30T03:19:08;13.60;99.90
20998;DHT22;10657;51.276;6.390;2023-09-30T03:21:35;13.50;99.90
20998;DHT22;10657;51.276;6.390;2023-09-30T03:24:04;13.60;99.90
20998;DHT22;10657;51.276;6.390;2023-09-30T03:26:32;13.60;99.90
20998;DHT22;10657;51.276;6.390;2023-09-30T03:28:59;13.50;99.90
20998;DHT22;10657;51.276;6.390;2023-09-30T03:31:26;13.50;99.90
20998;DHT22;10657;51.276;6.390;2023-09-30T03:33:53;13.50;99.90
20998;DHT22;10657;51.276;6.390;2023-09-30T03:36:23;13.50;99.90
20998;DHT22;10657;51.276;6.390;2023-09-30T03:38:52;13.40;99.90
20998;DHT22;10657;51.276;6.390;2023-09-30T03:41:21;13.40;99.90
20998;DHT22;10657;51.276;6.390;2023-09-30T03:43:47;13.30;99.90
20998;DHT22;10657;51.276;6.390;2023-09-30T03:46:15;13.30;99.90
20998;DHT22;10657;51.276;6.390;2023-09-30T03:48:42;13.30;99.90
20998;DHT22;10657;51.276;6.390;2023-09-30T03:51:12;13.30;99.90
20998;DHT22;10657;51.276;6.390;2023-09-30T03:53:42;13.40;99.90
20998;DHT22;10657;51.276;6.390;2023-09-30T03:56:09;13.40;99.90
20998;DHT22;10657;51.276;6.390;2023-09-30T03:58:43;13.30;99.90
20998;DHT22;10657;51.276;6.390;2023-09-30T04:01:11;13.30;99.90
20998;DHT22;10657;51.276;6.390;2023-09-30T04:03:38;13.40;99.90
20998;DHT22;10657;51.276;6.390;2023-09-30T04:06:10;13.50;99.90
20998;DHT22;10657;51.276;6.390;2023-09-30T04:08:37;13.40;99.90
20998;DHT22;10657;51.276;6.390;2023-09-30T04:11:04;13.40;99.90
20998;DHT22;10657;51.276;6.390;2023-09-30T04:13:31;13.40;99.90
20998;DHT22;10657;51.276;6.390;2023-09-30T04:15:59;13.40;99.90
20998;DHT22;10657;51.276;6.390;2023-09-30T04:18:26;13.40;99.90
20998;DHT22;10657;51.276;6.390;2023-09-30T04:20:53;13.30;99.90
20998;DHT22;10657;51.276;6.390;2023-09-30T04:23:20;13.20;99.90
20998;DHT22;10657;51.276;6.390;2023-09-30T04:25:47;13.20;99.90
20998;DHT22;10657;51.276;6.390;2023-09-30T04:28:14;13.20;99.90
20998;DHT22;10657;51.276;6.390;2023-09-30T04:30:40;13.20;99.90
20998;DHT22;10657;51.276;6.390;2023-09-30T04:33:07;13.20;99.90
20998;DHT22;10657;51.276;6.390;2023-09-30T04:35:35;13.20;99.90
20998;DHT22;10657;51.276;6.390;2023-09-30T04:38:02;13.20;99.90
20998;DHT22;10657;51.276;6.390;2023-09-30T04:40:30;13.10;99.90
20998;DHT22;10657;51.276;6.390;2023-09-30T04:42:59;13.10;99.90
20998;DHT22;10657;51.276;6.390;2023-09-30T04:45:26;13.20;99.90
20998;DHT22;10657;51.276;6.390;2023-09-30T04:47:54;13.30;99.90
20998;DHT22;10657;51.276;6.390;2023-09-30T04:50:23;13.20;99.90
20998;DHT22;10657;51.276;6.390;2023-09-30T04:52:53;13.20;99.90
20998;DHT22;10657;51.276;6.390;2023-09-30T04:55:20;13.20;99.90
20998;DHT22;10657;51.276;6.390;2023-09-30T04:57:47;13.30;99.90
20998;DHT22;10657;51.276;6.390;2023-09-30T05:00:16;13.30;99.90
20998;DHT22;10657;51.276;6.390;2023-09-30T05:02:44;13.10;99.90
20998;DHT22;10657;51.276;6.390;2023-09-30T05:05:12;13.20;99.90
20998;DHT22;10657;51.276;6.390;2023-09-30T05:07:38;13.10;99.90
20998;DHT22;10657;51.276;6.390;2023-09-30T05:10:05;13.10;99.90
20998;DHT22;10657;51.276;6.390;2023-09-30T05:12:37;13.20;99.90
20998;DHT22;10657;51.276;6.390;2023-09-30T05:15:04;13.20;99.90
20998;DHT22;10657;51.276;6.390;2023-09-30T05:17:34;13.10;99.90
20998;DHT22;10657;51.276;6.390;2023-09-30T05:20:01;13.10;99.90
20998;DHT22;10657;51.276;6.390;2023-09-30T05:22:29;13.10;99.90
20998;DHT22;10657;51.276;6.390;2023-09-30T05:24:56;13.10;99.90
20998;DHT22;10657;51.276;6.390;2023-09-30T05:27:23;13.10;99.90
20998;DHT22;10657;51.276;6.390;2023-09-30T05:29:49;13.00;99.90
20998;DHT22;10657;51.276;6.390;2023-09-30T05:32:16;13.10;99.90
20998;DHT22;10657;51.276;6.390;2023-09-30T05:34:44;13.10;99.90
20998;DHT22;10657;51.276;6.390;2023-09-30T05:37:11;13.10;99.90
20998;DHT22;10657;51.276;6.390;2023-09-30T05:39:38;13.10;99.90
20998;DHT22;10657;51.276;6.390;2023-09-30T05:42:05;13.10;99.90
20998;DHT22;10657;51.276;6.390;2023-09-30T05:44:33;13.10;99.90
20998;DHT22;10657;51.276;6.390;2023-09-30T05:46:59;13.10;99.90
20998;DHT22;10657;51.276;6.390;2023-09-30T05:49:26;13.20;99.90
20998;DHT22;10657;51.276;6.390;2023-09-30T05:51:53;13.20;99.90
20998;DHT22;10657;51.276;6.390;2023-09-30T05:54:21;13.10;99.90
20998;DHT22;10657;51.276;6.390;2023-09-30T05:56:49;13.10;99.90
20998;DHT22;10657;51.276;6.390;2023-09-30T05:59:16;13.10;99.90
20998;DHT22;10657;51.276;6.390;2023-09-30T06:01:42;13.20;99.90
20998;DHT22;10657;51.276;6.390;2023-09-30T06:04:09;13.10;99.90
20998;DHT22;10657;51.276;6.390;2023-09-30T06:06:36;13.10;99.90
20998;DHT22;10657;51.276;6.390;2023-09-30T06:09:03;13.10;99.90
20998;DHT22;10657;51.276;6.390;2023-09-30T06:11:29;13.00;99.90
20998;DHT22;10657;51.276;6.390;2023-09-30T06:13:57;13.10;99.90
20998;DHT22;10657;51.276;6.390;2023-09-30T06:16:28;13.10;99.90
20998;DHT22;10657;51.276;6.390;2023-09-30T06:18:54;13.20;99.90
20998;DHT22;10657;51.276;6.390;2023-09-30T06:21:22;13.10;99.90
20998;DHT22;10657;51.276;6.390;2023-09-30T06:23:49;13.20;99.90
20998;DHT22;10657;51.276;6.390;2023-09-30T06:26:18;13.20;99.90
20998;DHT22;10657;51.276;6.390;2023-09-30T06:28:45;13.20;99.90
20998;DHT22;10657;51.276;6.390;2023-09-30T06:31:11;13.10;99.90
20998;DHT22;10657;51.276;6.390;2023-09-30T06:33:38;13.10;99.90
20998;DHT22;10657;51.276;6.390;2023-09-30T06:36:12;13.20;99.90
20998;DHT22;10657;51.276;6.390;2023-09-30T06:38:40;13.30;99.90
20998;DHT22;10657;51.276;6.390;2023-09-30T06:41:20;13.30;99.90
20998;DHT22;10657;51.276;6.390;2023-09-30T06:43:46;13.40;99.90
20998;DHT22;10657;51.276;6.390;2023-09-30T06:46:13;13.50;99.90
20998;DHT22;10657;51.276;6.390;2023-09-30T06:48:40;13.50;99.90
20998;DHT22;10657;51.276;6.390;2023-09-30T06:51:07;13.40;99.90
20998;DHT22;10657;51.276;6.390;2023-09-30T06:53:39;13.30;99.90
20998;DHT22;10657;51.276;6.390;2023-09-30T06:56:06;13.50;99.90
20998;DHT22;10657;51.276;6.390;2023-09-30T06:58:33;13.50;99.90
20998;DHT22;10657;51.276;6.390;2023-09-30T07:00:59;13.50;99.90
20998;DHT22;10657;51.276;6.390;2023-09-30T07:03:26;13.60;99.90
20998;DHT22;10657;51.276;6.390;2023-09-30T07:05:53;13.50;99.90
20998;DHT22;10657;51.276;6.390;2023-09-30T07:08:21;13.60;99.90
20998;DHT22;10657;51.276;6.390;2023-09-30T07:10:48;13.60;99.90
20998;DHT22;10657;51.276;6.390;2023-09-30T07:13:19;13.70;99.90
20998;DHT22;10657;51.276;6.390;2023-09-30T07:15:45;13.80;99.90
20998;DHT22;10657;51.276;6.390;2023-09-30T07:18:13;13.80;99.90
20998;DHT22;10657;51.276;6.390;2023-09-30T07:20:40;13.90;99.90
20998;DHT22;10657;51.276;6.390;2023-09-30T07:23:07;14.00;99.90
20998;DHT22;10657;51.276;6.390;2023-09-30T07:25:46;14.00;99.90
20998;DHT22;10657;51.276;6.390;2023-09-30T07:28:13;14.00;99.90
20998;DHT22;10657;51.276;6.390;2023-09-30T07:30:40;14.00;99.90
20998;DHT22;10657;51.276;6.390;2023-09-30T07:33:07;14.10;99.90
20998;DHT22;10657;51.276;6.390;2023-09-30T07:35:34;14.10;99.90
20998;DHT22;10657;51.276;6.390;2023-09-30T07:38:01;14.00;99.90
20998;DHT22;10657;51.276;6.390;2023-09-30T07:40:29;14.10;99.90
20998;DHT22;10657;51.276;6.390;2023-09-30T07:42:56;14.10;99.90
20998;DHT22;10657;51.276;6.390;2023-09-30T07:45:23;14.10;99.90
20998;DHT22;10657;51.276;6.390;2023-09-30T07:47:50;14.20;99.90
20998;DHT22;10657;51.276;6.390;2023-09-30T07:50:17;14.20;99.90
20998;DHT22;10657;51.276;6.390;2023-09-30T07:52:44;14.20;99.90
20998;DHT22;10657;51.276;6.390;2023-09-30T07:55:12;14.30;99.90
20998;DHT22;10657;51.276;6.390;2023-09-30T07:57:41;14.40;99.90
20998;DHT22;10657;51.276;6.390;2023-09-30T08:00:09;14.40;99.90
20998;DHT22;10657;51.276;6.390;2023-09-30T08:02:41;14.40;99.90
20998;DHT22;10657;51.276;6.390;2023-09-30T08:05:09;14.50;99.90
20998;DHT22;10657;51.276;6.390;2023-09-30T08:07:36;14.60;99.90
20998;DHT22;10657;51.276;6.390;2023-09-30T08:10:04;14.60;99.90
20998;DHT22;10657;51.276;6.390;2023-09-30T08:12:32;14.60;99.90
20998;DHT22;10657;51.276;6.390;2023-09-30T08:15:00;14.70;99.90
20998;DHT22;10657;51.276;6.390;2023-09-30T08:17:27;14.70;99.90
20998;DHT22;10657;51.276;6.390;2023-09-30T08:19:53;14.70;99.90
20998;DHT22;10657;51.276;6.390;2023-09-30T08:22:20;14.70;99.90
20998;DHT22;10657;51.276;6.390;2023-09-30T08:24:47;14.70;99.90
20998;DHT22;10657;51.276;6.390;2023-09-30T08:27:14;14.80;99.90
20998;DHT22;10657;51.276;6.390;2023-09-30T08:29:41;14.80;99.90
20998;DHT22;10657;51.276;6.390;2023-09-30T08:32:08;14.80;99.90
20998;DHT22;10657;51.276;6.390;2023-09-30T08:34:35;14.90;99.90
20998;DHT22;10657;51.276;6.390;2023-09-30T08:37:01;15.00;99.90
20998;DHT22;10657;51.276;6.390;2023-09-30T08:39:28;15.00;99.90
20998;DHT22;10657;51.276;6.390;2023-09-30T08:41:55;15.10;99.90
20998;DHT22;10657;51.276;6.390;2023-09-30T08:44:25;15.10;99.90
20998;DHT22;10657;51.276;6.390;2023-09-30T08:46:53;15.20;99.90
20998;DHT22;10657;51.276;6.390;2023-09-30T08:49:20;15.20;99.90
20998;DHT22;10657;51.276;6.390;2023-09-30T08:51:48;15.30;99.90
20998;DHT22;10657;51.276;6.390;2023-09-30T08:54:16;15.30;99.90
20998;DHT22;10657;51.276;6.390;2023-09-30T08:56:45;15.40;99.90
20998;DHT22;10657;51.276;6.390;2023-09-30T08:59:14;15.30;99.90
20998;DHT22;10657;51.276;6.390;2023-09-30T09:01:41;15.40;99.90
20998;DHT22;10657;51.276;6.390;2023-09-30T09:04:08;15.50;99.90
20998;DHT22;10657;51.276;6.390;2023-09-30T09:06:35;15.50;99.90
20998;DHT22;10657;51.276;6.390;2023-09-30T09:09:18;15.50;99.90
20998;DHT22;10657;51.276;6.390;2023-09-30T09:11:45;15.50;99.90
20998;DHT22;10657;51.276;6.390;2023-09-30T09:14:13;15.60;99.90
20998;DHT22;10657;51.276;6.390;2023-09-30T09:16:53;15.60;99.90
20998;DHT22;10657;51.276;6.390;2023-09-30T09:19:21;15.70;99.90
20998;DHT22;10657;51.276;6.390;2023-09-30T09:21:59;15.70;99.90
20998;DHT22;10657;51.276;6.390;2023-09-30T09:24:30;15.70;99.90
20998;DHT22;10657;51.276;6.390;2023-09-30T09:27:24;15.70;99.90
20998;DHT22;10657;51.276;6.390;2023-09-30T09:29:51;15.80;99.90
20998;DHT22;10657;51.276;6.390;2023-09-30T09:32:17;15.90;99.90
20998;DHT22;10657;51.276;6.390;2023-09-30T09:34:45;16.00;99.90
20998;DHT22;10657;51.276;6.390;2023-09-30T09:37:26;16.00;99.90
20998;DHT22;10657;51.276;6.390;2023-09-30T09:39:55;16.00;99.90
20998;DHT22;10657;51.276;6.390;2023-09-30T09:42:33;16.10;99.90
20998;DHT22;10657;51.276;6.390;2023-09-30T09:45:05;16.20;99.90
20998;DHT22;10657;51.276;6.390;2023-09-30T09:47:33;16.20;99.90
20998;DHT22;10657;51.276;6.390;2023-09-30T09:50:03;16.30;99.90
20998;DHT22;10657;51.276;6.390;2023-09-30T09:52:31;16.30;99.90
20998;DHT22;10657;51.276;6.390;2023-09-30T09:55:01;16.40;99.90
20998;DHT22;10657;51.276;6.390;2023-09-30T09:57:30;16.50;99.90
20998;DHT22;10657;51.276;6.390;2023-09-30T09:59:58;16.40;99.90
20998;DHT22;10657;51.276;6.390;2023-09-30T10:02:26;16.50;99.90
20998;DHT22;10657;51.276;6.390;2023-09-30T10:04:55;16.40;99.90
20998;DHT22;10657;51.276;6.390;2023-09-30T10:07:27;16.40;99.90
20998;DHT22;10657;51.276;6.390;2023-09-30T10:09:56;16.50;99.90
20998;DHT22;10657;51.276;6.390;2023-09-30T10:12:25;16.50;99.90
20998;DHT22;10657;51.276;6.390;2023-09-30T10:14:53;16.50;99.90
20998;DHT22;10657;51.276;6.390;2023-09-30T10:17:19;16.50;99.90
20998;DHT22;10657;51.276;6.390;2023-09-30T10:20:04;16.50;99.90
20998;DHT22;10657;51.276;6.390;2023-09-30T10:22:32;16.50;99.90
20998;DHT22;10657;51.276;6.390;2023-09-30T10:24:59;16.60;99.90
20998;DHT22;10657;51.276;6.390;2023-09-30T10:35:18;16.80;99.90
20998;DHT22;10657;51.276;6.390;2023-09-30T10:37:45;17.00;99.90
20998;DHT22;10657;51.276;6.390;2023-09-30T10:40:29;17.00;99.90
20998;DHT22;10657;51.276;6.390;2023-09-30T10:42:56;17.20;99.90
20998;DHT22;10657;51.276;6.390;2023-09-30T10:51:18;17.60;99.90
20998;DHT22;10657;51.276;6.390;2023-09-30T10:53:53;17.60;99.90
20998;DHT22;10657;51.276;6.390;2023-09-30T10:56:26;17.60;99.90
20998;DHT22;10657;51.276;6.390;2023-09-30T10:58:58;17.50;99.90
20998;DHT22;10657;51.276;6.390;2023-09-30T11:01:32;17.40;99.90
20998;DHT22;10657;51.276;6.390;2023-09-30T11:04:03;17.50;99.90
20998;DHT22;10657;51.276;6.390;2023-09-30T11:06:32;17.50;99.90
20998;DHT22;10657;51.276;6.390;2023-09-30T11:09:00;17.60;99.90
20998;DHT22;10657;51.276;6.390;2023-09-30T11:11:40;17.50;99.90
20998;DHT22;10657;51.276;6.390;2023-09-30T11:14:28;17.60;99.90
20998;DHT22;10657;51.276;6.390;2023-09-30T11:16:58;17.70;99.90
20998;DHT22;10657;51.276;6.390;2023-09-30T11:19:26;17.80;99.90
20998;DHT22;10657;51.276;6.390;2023-09-30T11:21:54;17.80;99.90
20998;DHT22;10657;51.276;6.390;2023-09-30T11:24:22;17.70;99.90
20998;DHT22;10657;51.276;6.390;2023-09-30T11:26:53;17.80;99.90
20998;DHT22;10657;51.276;6.390;2023-09-30T11:29:20;17.80;99.90
20998;DHT22;10657;51.276;6.390;2023-09-30T11:31:48;18.00;99.90
20998;DHT22;10657;51.276;6.390;2023-09-30T11:34:18;18.30;99.90
20998;DHT22;10657;51.276;6.390;2023-09-30T11:36:53;18.20;99.90
20998;DHT22;10657;51.276;6.390;2023-09-30T11:39:23;18.10;99.90
20998;DHT22;10657;51.276;6.390;2023-09-30T11:41:51;18.30;99.90
20998;DHT22;10657;51.276;6.390;2023-09-30T11:44:19;18.40;99.90
20998;DHT22;10657;51.276;6.390;2023-09-30T11:46:58;18.30;99.90
20998;DHT22;10657;51.276;6.390;2023-09-30T11:49:36;18.20;99.90
20998;DHT22;10657;51.276;6.390;2023-09-30T11:52:10;18.30;99.90
20998;DHT22;10657;51.276;6.390;2023-09-30T11:54:41;18.30;99.90
20998;DHT22;10657;51.276;6.390;2023-09-30T11:57:14;18.10;99.90
20998;DHT22;10657;51.276;6.390;2023-09-30T11:59:43;18.10;99.90
20998;DHT22;10657;51.276;6.390;2023-09-30T12:02:11;18.20;99.90
20998;DHT22;10657;51.276;6.390;2023-09-30T12:04:42;18.50;99.90
20998;DHT22;10657;51.276;6.390;2023-09-30T12:07:09;18.50;99.90
20998;DHT22;10657;51.276;6.390;2023-09-30T12:09:36;18.60;99.90
20998;DHT22;10657;51.276;6.390;2023-09-30T12:12:05;18.80;99.90
20998;DHT22;10657;51.276;6.390;2023-09-30T12:14:36;18.80;99.90
20998;DHT22;10657;51.276;6.390;2023-09-30T12:17:02;18.60;99.90
20998;DHT22;10657;51.276;6.390;2023-09-30T12:19:29;18.50;99.90
20998;DHT22;10657;51.276;6.390;2023-09-30T12:21:56;18.70;99.90
20998;DHT22;10657;51.276;6.390;2023-09-30T12:24:23;18.90;99.90
20998;DHT22;10657;51.276;6.390;2023-09-30T12:26:51;19.00;99.90
20998;DHT22;10657;51.276;6.390;2023-09-30T12:29:20;19.20;99.90
20998;DHT22;10657;51.276;6.390;2023-09-30T12:31:50;19.20;99.90
20998;DHT22;10657;51.276;6.390;2023-09-30T12:34:19;19.30;99.90
20998;DHT22;10657;51.276;6.390;2023-09-30T12:36:46;19.40;99.90
20998;DHT22;10657;51.276;6.390;2023-09-30T12:39:14;19.50;99.90
20998;DHT22;10657;51.276;6.390;2023-09-30T12:41:44;19.40;99.90
20998;DHT22;10657;51.276;6.390;2023-09-30T12:44:12;19.40;99.90
20998;DHT22;10657;51.276;6.390;2023-09-30T12:46:40;19.40;99.90
20998;DHT22;10657;51.276;6.390;2023-09-30T12:49:07;19.50;99.90
20998;DHT22;10657;51.276;6.390;2023-09-30T12:51:36;19.70;99.90
20998;DHT22;10657;51.276;6.390;2023-09-30T12:54:06;19.60;99.90
20998;DHT22;10657;51.276;6.390;2023-09-30T12:56:32;19.70;99.90
20998;DHT22;10657;51.276;6.390;2023-09-30T12:59:00;19.90;99.90
20998;DHT22;10657;51.276;6.390;2023-09-30T13:01:26;19.90;99.90
20998;DHT22;10657;51.276;6.390;2023-09-30T13:03:55;19.80;99.90
20998;DHT22;10657;51.276;6.390;2023-09-30T13:06:22;19.80;99.90
20998;DHT22;10657;51.276;6.390;2023-09-30T13:08:49;19.70;99.90
20998;DHT22;10657;51.276;6.390;2023-09-30T13:11:16;19.70;99.90
20998;DHT22;10657;51.276;6.390;2023-09-30T13:13:43;19.80;99.90
20998;DHT22;10657;51.276;6.390;2023-09-30T13:16:10;20.00;99.90
20998;DHT22;10657;51.276;6.390;2023-09-30T13:18:39;20.40;99.90
20998;DHT22;10657;51.276;6.390;2023-09-30T13:21:06;20.70;99.90
20998;DHT22;10657;51.276;6.390;2023-09-30T13:23:33;20.80;99.90
20998;DHT22;10657;51.276;6.390;2023-09-30T13:26:01;21.00;99.90
20998;DHT22;10657;51.276;6.390;2023-09-30T13:28:28;20.70;99.90
20998;DHT22;10657;51.276;6.390;2023-09-30T13:30:55;20.70;99.90
20998;DHT22;10657;51.276;6.390;2023-09-30T13:33:23;20.70;99.90
20998;DHT22;10657;51.276;6.390;2023-09-30T13:35:50;20.50;99.90
20998;DHT22;10657;51.276;6.390;2023-09-30T13:38:17;20.40;99.90
20998;DHT22;10657;51.276;6.390;2023-09-30T13:40:44;20.20;99.90
20998;DHT22;10657;51.276;6.390;2023-09-30T13:43:11;20.10;99.90
20998;DHT22;10657;51.276;6.390;2023-09-30T13:45:38;19.90;99.90
20998;DHT22;10657;51.276;6.390;2023-09-30T13:48:06;20.00;99.90
20998;DHT22;10657;51.276;6.390;2023-09-30T13:50:33;20.00;99.90
20998;DHT22;10657;51.276;6.390;2023-09-30T13:53:00;20.00;99.90
20998;DHT22;10657;51.276;6.390;2023-09-30T13:55:27;20.00;99.90
20998;DHT22;10657;51.276;6.390;2023-09-30T13:57:54;19.90;99.90
20998;DHT22;10657;51.276;6.390;2023-09-30T14:00:21;20.00;99.90
20998;DHT22;10657;51.276;6.390;2023-09-30T14:02:48;19.80;99.90
20998;DHT22;10657;51.276;6.390;2023-09-30T14:05:17;19.90;99.90
20998;DHT22;10657;51.276;6.390;2023-09-30T14:07:44;19.70;99.90
20998;DHT22;10657;51.276;6.390;2023-09-30T14:10:13;19.70;99.90
20998;DHT22;10657;51.276;6.390;2023-09-30T14:12:40;19.70;99.90
20998;DHT22;10657;51.276;6.390;2023-09-30T14:15:08;19.90;99.90
20998;DHT22;10657;51.276;6.390;2023-09-30T14:17:35;20.00;99.90
20998;DHT22;10657;51.276;6.390;2023-09-30T14:20:02;20.00;99.90
20998;DHT22;10657;51.276;6.390;2023-09-30T14:22:32;19.90;99.90
20998;DHT22;10657;51.276;6.390;2023-09-30T14:24:58;20.10;99.90
20998;DHT22;10657;51.276;6.390;2023-09-30T14:27:25;20.10;99.90
20998;DHT22;10657;51.276;6.390;2023-09-30T14:29:52;20.30;99.90
20998;DHT22;10657;51.276;6.390;2023-09-30T14:32:19;20.40;99.90
20998;DHT22;10657;51.276;6.390;2023-09-30T14:34:46;20.50;99.90
20998;DHT22;10657;51.276;6.390;2023-09-30T14:37:12;20.70;99.90
20998;DHT22;10657;51.276;6.390;2023-09-30T14:39:39;20.60;99.90
20998;DHT22;10657;51.276;6.390;2023-09-30T14:42:06;20.50;99.90
20998;DHT22;10657;51.276;6.390;2023-09-30T14:44:33;20.50;99.90
20998;DHT22;10657;51.276;6.390;2023-09-30T14:47:00;20.60;99.90
20998;DHT22;10657;51.276;6.390;2023-09-30T14:49:26;20.70;99.90
20998;DHT22;10657;51.276;6.390;2023-09-30T14:51:53;20.80;99.90
20998;DHT22;10657;51.276;6.390;2023-09-30T14:54:23;21.00;99.90
20998;DHT22;10657;51.276;6.390;2023-09-30T14:56:50;20.70;99.90
20998;DHT22;10657;51.276;6.390;2023-09-30T14:59:16;20.70;99.90
20998;DHT22;10657;51.276;6.390;2023-09-30T15:01:43;20.90;99.90
20998;DHT22;10657;51.276;6.390;2023-09-30T15:04:10;20.70;99.90
20998;DHT22;10657;51.276;6.390;2023-09-30T15:06:37;20.60;99.90
20998;DHT22;10657;51.276;6.390;2023-09-30T15:09:04;20.50;99.90
20998;DHT22;10657;51.276;6.390;2023-09-30T15:11:31;20.40;99.90
20998;DHT22;10657;51.276;6.390;2023-09-30T15:13:58;20.20;99.90
20998;DHT22;10657;51.276;6.390;2023-09-30T15:16:25;20.30;99.90
20998;DHT22;10657;51.276;6.390;2023-09-30T15:18:53;20.30;99.90
20998;DHT22;10657;51.276;6.390;2023-09-30T15:21:20;20.20;99.90
20998;DHT22;10657;51.276;6.390;2023-09-30T15:23:47;20.00;99.90
20998;DHT22;10657;51.276;6.390;2023-09-30T15:26:14;20.10;99.90
20998;DHT22;10657;51.276;6.390;2023-09-30T15:28:42;20.10;99.90
20998;DHT22;10657;51.276;6.390;2023-09-30T15:31:10;20.10;99.90
20998;DHT22;10657;51.276;6.390;2023-09-30T15:33:37;20.20;99.90
20998;DHT22;10657;51.276;6.390;2023-09-30T15:36:11;20.20;99.90
20998;DHT22;10657;51.276;6.390;2023-09-30T15:38:38;20.20;99.90
20998;DHT22;10657;51.276;6.390;2023-09-30T15:41:05;20.10;99.90
20998;DHT22;10657;51.276;6.390;2023-09-30T15:43:32;20.10;99.90
20998;DHT22;10657;51.276;6.390;2023-09-30T15:45:59;20.00;99.90
20998;DHT22;10657;51.276;6.390;2023-09-30T15:48:27;19.80;99.90
20998;DHT22;10657;51.276;6.390;2023-09-30T15:50:54;19.90;99.90